Aviation Digital Data Service (ADDS)

Output produced by TAFs form (0408 UTC 11 December 2017)
found at http://www.aviationweather.gov/adds/tafs/
 
KCHA 110353Z 17003KT 10SM CLR 03/M05 A3024 RMK AO2 SLP242 T00281050 $
KCHA 102320Z 1100/1124 21003KT P6SM SKC 
     FM111600 21006KT P6SM FEW250